sensor_id;sensor_type;location;lat;lon;timestamp;pressure;altitude;pressure_sealevel;temperature;humidity
48390;BME280;34643;47.964;7.982;2023-06-14T00:03:58;96174.59;;;20.83;32.67
48390;BME280;34643;47.964;7.982;2023-06-14T00:08:59;96171.16;;;20.82;32.62
48390;BME280;34643;47.964;7.982;2023-06-14T00:13:59;96175.72;;;20.80;32.59
48390;BME280;34643;47.964;7.982;2023-06-14T00:18:59;96168.31;;;20.76;32.58
48390;BME280;34643;47.964;7.982;2023-06-14T00:24:00;96172.38;;;20.70;32.49
48390;BME280;34643;47.964;7.982;2023-06-14T00:29:01;96170.56;;;20.70;32.70
48390;BME280;34643;47.964;7.982;2023-06-14T00:34:01;96171.16;;;20.64;32.45
48390;BME280;34643;47.964;7.982;2023-06-14T00:39:01;96167.84;;;20.62;32.89
48390;BME280;34643;47.964;7.982;2023-06-14T00:44:01;96166.88;;;20.63;32.89
48390;BME280;34643;47.964;7.982;2023-06-14T00:49:02;96168.44;;;20.92;32.61
48390;BME280;34643;47.964;7.982;2023-06-14T00:54:03;96164.34;;;20.89;32.05
48390;BME280;34643;47.964;7.982;2023-06-14T00:59:03;96168.91;;;20.87;32.16
48390;BME280;34643;47.964;7.982;2023-06-14T01:04:04;96162.31;;;20.83;31.74
48390;BME280;34643;47.964;7.982;2023-06-14T01:14:11;96171.16;;;20.82;31.63
48390;BME280;34643;47.964;7.982;2023-06-14T01:19:13;96162.78;;;20.79;31.67
48390;BME280;34643;47.964;7.982;2023-06-14T01:24:15;96165.53;;;20.77;31.62
48390;BME280;34643;47.964;7.982;2023-06-14T01:29:15;96165.69;;;20.76;31.64
48390;BME280;34643;47.964;7.982;2023-06-14T01:34:19;96164.19;;;20.73;31.53
48390;BME280;34643;47.964;7.982;2023-06-14T01:39:19;96163.31;;;20.64;31.71
48390;BME280;34643;47.964;7.982;2023-06-14T01:44:20;96163.13;;;20.66;31.61
48390;BME280;34643;47.964;7.982;2023-06-14T01:49:20;96159.69;;;20.65;31.68
48390;BME280;34643;47.964;7.982;2023-06-14T01:54:21;96171.72;;;20.58;31.57
48390;BME280;34643;47.964;7.982;2023-06-14T01:59:22;96159.44;;;20.59;31.47
48390;BME280;34643;47.964;7.982;2023-06-14T02:04:23;96157.28;;;20.54;31.60
48390;BME280;34643;47.964;7.982;2023-06-14T02:09:23;96157.28;;;20.54;31.42
48390;BME280;34643;47.964;7.982;2023-06-14T02:14:23;96165.00;;;20.56;31.44
48390;BME280;34643;47.964;7.982;2023-06-14T02:19:24;96166.75;;;20.55;31.45
48390;BME280;34643;47.964;7.982;2023-06-14T02:24:24;96165.56;;;20.49;31.48
48390;BME280;34643;47.964;7.982;2023-06-14T02:29:24;96163.25;;;20.46;31.49
48390;BME280;34643;47.964;7.982;2023-06-14T02:34:25;96171.81;;;20.48;31.53
48390;BME280;34643;47.964;7.982;2023-06-14T02:39:25;96158.97;;;20.45;31.38
48390;BME280;34643;47.964;7.982;2023-06-14T02:44:26;96161.59;;;20.45;31.43
48390;BME280;34643;47.964;7.982;2023-06-14T02:49:29;96164.38;;;20.44;31.35
48390;BME280;34643;47.964;7.982;2023-06-14T02:54:30;96172.38;;;20.42;31.30
48390;BME280;34643;47.964;7.982;2023-06-14T02:59:30;96174.56;;;20.47;31.29
48390;BME280;34643;47.964;7.982;2023-06-14T03:04:30;96180.78;;;20.46;31.31
48390;BME280;34643;47.964;7.982;2023-06-14T03:09:39;96188.38;;;20.39;31.38
48390;BME280;34643;47.964;7.982;2023-06-14T03:14:41;96183.16;;;20.39;31.60
48390;BME280;34643;47.964;7.982;2023-06-14T03:19:44;96193.41;;;20.32;31.51
48390;BME280;34643;47.964;7.982;2023-06-14T03:24:45;96208.63;;;20.29;31.49
48390;BME280;34643;47.964;7.982;2023-06-14T03:29:48;96203.94;;;20.23;31.47
48390;BME280;34643;47.964;7.982;2023-06-14T03:34:48;96200.94;;;20.18;31.54
48390;BME280;34643;47.964;7.982;2023-06-14T03:39:55;96206.00;;;20.29;31.65
48390;BME280;34643;47.964;7.982;2023-06-14T03:44:57;96203.31;;;20.84;31.88
48390;BME280;34643;47.964;7.982;2023-06-14T03:49:58;96220.38;;;21.06;32.43
48390;BME280;34643;47.964;7.982;2023-06-14T03:55:01;96224.56;;;21.17;32.82
48390;BME280;34643;47.964;7.982;2023-06-14T04:00:03;96221.22;;;21.25;33.40
48390;BME280;34643;47.964;7.982;2023-06-14T04:05:14;96227.66;;;21.31;33.63
48390;BME280;34643;47.964;7.982;2023-06-14T04:10:20;96221.91;;;21.35;33.83
48390;BME280;34643;47.964;7.982;2023-06-14T04:15:21;96233.78;;;21.39;34.16
48390;BME280;34643;47.964;7.982;2023-06-14T04:20:21;96233.47;;;21.42;34.44
48390;BME280;34643;47.964;7.982;2023-06-14T04:25:22;96243.53;;;21.47;34.90
48390;BME280;34643;47.964;7.982;2023-06-14T04:30:23;96241.84;;;21.20;34.29
48390;BME280;34643;47.964;7.982;2023-06-14T04:35:26;96252.47;;;20.82;34.21
48390;BME280;34643;47.964;7.982;2023-06-14T04:40:30;96258.75;;;20.72;34.17
48390;BME280;34643;47.964;7.982;2023-06-14T04:45:31;96265.34;;;19.63;33.04
48390;BME280;34643;47.964;7.982;2023-06-14T04:50:33;96274.69;;;19.66;33.37
48390;BME280;34643;47.964;7.982;2023-06-14T04:55:33;96265.22;;;17.84;36.70
48390;BME280;34643;47.964;7.982;2023-06-14T05:00:35;96278.78;;;19.98;34.01
48390;BME280;34643;47.964;7.982;2023-06-14T05:05:37;96273.19;;;20.48;33.95
48390;BME280;34643;47.964;7.982;2023-06-14T05:10:37;96279.34;;;20.66;34.00
48390;BME280;34643;47.964;7.982;2023-06-14T05:15:37;96281.09;;;20.76;34.42
48390;BME280;34643;47.964;7.982;2023-06-14T05:20:38;96271.75;;;20.91;34.65
48390;BME280;34643;47.964;7.982;2023-06-14T05:25:38;96268.94;;;20.93;34.79
48390;BME280;34643;47.964;7.982;2023-06-14T05:30:38;96273.63;;;20.99;35.34
48390;BME280;34643;47.964;7.982;2023-06-14T05:35:40;96284.63;;;21.02;35.51
48390;BME280;34643;47.964;7.982;2023-06-14T05:40:40;96285.31;;;21.04;35.62
48390;BME280;34643;47.964;7.982;2023-06-14T05:45:40;96280.72;;;21.06;35.70
48390;BME280;34643;47.964;7.982;2023-06-14T05:50:40;96279.47;;;21.11;35.88
48390;BME280;34643;47.964;7.982;2023-06-14T05:55:41;96279.31;;;21.12;36.01
48390;BME280;34643;47.964;7.982;2023-06-14T06:00:41;96284.25;;;21.15;36.20
48390;BME280;34643;47.964;7.982;2023-06-14T06:05:41;96278.72;;;21.18;36.31
48390;BME280;34643;47.964;7.982;2023-06-14T06:10:42;96276.63;;;21.22;36.45
48390;BME280;34643;47.964;7.982;2023-06-14T06:15:42;96283.34;;;21.24;36.46
48390;BME280;34643;47.964;7.982;2023-06-14T06:20:42;96281.56;;;21.25;36.69
48390;BME280;34643;47.964;7.982;2023-06-14T06:25:44;96290.78;;;21.29;36.64
48390;BME280;34643;47.964;7.982;2023-06-14T06:30:44;96282.78;;;21.31;36.87
48390;BME280;34643;47.964;7.982;2023-06-14T06:35:45;96288.69;;;21.33;36.91
48390;BME280;34643;47.964;7.982;2023-06-14T06:40:45;96289.34;;;21.35;37.04
48390;BME280;34643;47.964;7.982;2023-06-14T06:45:45;96301.38;;;21.37;37.14
48390;BME280;34643;47.964;7.982;2023-06-14T06:50:46;96296.78;;;21.39;37.15
48390;BME280;34643;47.964;7.982;2023-06-14T06:55:46;96292.22;;;21.41;37.19
48390;BME280;34643;47.964;7.982;2023-06-14T07:00:46;96291.06;;;21.44;37.41
48390;BME280;34643;47.964;7.982;2023-06-14T07:05:46;96293.59;;;21.45;37.46
48390;BME280;34643;47.964;7.982;2023-06-14T07:10:47;96293.44;;;21.47;37.46
48390;BME280;34643;47.964;7.982;2023-06-14T07:15:47;96293.28;;;21.49;37.63
48390;BME280;34643;47.964;7.982;2023-06-14T07:20:47;96285.25;;;21.50;37.69
48390;BME280;34643;47.964;7.982;2023-06-14T07:25:48;96290.22;;;21.53;37.69
48390;BME280;34643;47.964;7.982;2023-06-14T07:30:48;96287.41;;;21.55;37.53
48390;BME280;34643;47.964;7.982;2023-06-14T07:35:48;96297.78;;;21.56;37.64
48390;BME280;34643;47.964;7.982;2023-06-14T07:40:49;96295.00;;;21.58;37.89
48390;BME280;34643;47.964;7.982;2023-06-14T07:45:49;96295.66;;;21.60;37.92
48390;BME280;34643;47.964;7.982;2023-06-14T07:50:50;96291.06;;;21.62;38.07
48390;BME280;34643;47.964;7.982;2023-06-14T07:55:50;96297.03;;;21.64;37.90
48390;BME280;34643;47.964;7.982;2023-06-14T08:00:51;96293.41;;;21.65;38.17
48390;BME280;34643;47.964;7.982;2023-06-14T08:05:51;96294.91;;;21.68;38.01
48390;BME280;34643;47.964;7.982;2023-06-14T08:10:52;96296.56;;;21.69;38.40
48390;BME280;34643;47.964;7.982;2023-06-14T08:15:52;96304.28;;;21.70;38.39
48390;BME280;34643;47.964;7.982;2023-06-14T08:20:52;96293.78;;;21.70;38.48
48390;BME280;34643;47.964;7.982;2023-06-14T08:25:54;96292.66;;;21.73;38.31
48390;BME280;34643;47.964;7.982;2023-06-14T08:30:54;96302.84;;;21.76;38.40
48390;BME280;34643;47.964;7.982;2023-06-14T08:35:55;96295.81;;;21.76;38.60
48390;BME280;34643;47.964;7.982;2023-06-14T08:40:58;96300.06;;;21.77;38.59
48390;BME280;34643;47.964;7.982;2023-06-14T08:46:02;96303.34;;;21.79;38.54
48390;BME280;34643;47.964;7.982;2023-06-14T08:51:02;96300.59;;;21.81;38.90
48390;BME280;34643;47.964;7.982;2023-06-14T08:56:04;96301.41;;;21.81;38.85
48390;BME280;34643;47.964;7.982;2023-06-14T09:01:05;96306.34;;;21.84;38.94
48390;BME280;34643;47.964;7.982;2023-06-14T09:06:08;96303.56;;;21.86;39.05
48390;BME280;34643;47.964;7.982;2023-06-14T09:11:13;96312.13;;;21.88;39.04
48390;BME280;34643;47.964;7.982;2023-06-14T09:16:14;96302.28;;;21.90;39.05
48390;BME280;34643;47.964;7.982;2023-06-14T09:21:15;96309.88;;;21.93;39.27
48390;BME280;34643;47.964;7.982;2023-06-14T09:26:16;96305.41;;;21.94;39.11
48390;BME280;34643;47.964;7.982;2023-06-14T09:31:18;96315.63;;;21.97;39.40
48390;BME280;34643;47.964;7.982;2023-06-14T09:36:20;96312.03;;;21.98;39.16
48390;BME280;34643;47.964;7.982;2023-06-14T09:41:33;96322.41;;;21.99;39.49
48390;BME280;34643;47.964;7.982;2023-06-14T09:46:34;96311.72;;;22.01;39.43
48390;BME280;34643;47.964;7.982;2023-06-14T09:51:36;96324.69;;;22.02;39.55
48390;BME280;34643;47.964;7.982;2023-06-14T09:56:44;96321.91;;;22.04;39.33
48390;BME280;34643;47.964;7.982;2023-06-14T10:01:44;96322.59;;;22.06;39.33
48390;BME280;34643;47.964;7.982;2023-06-14T10:06:45;96315.53;;;22.07;39.27
48390;BME280;34643;47.964;7.982;2023-06-14T10:11:46;96305.03;;;22.07;39.63
48390;BME280;34643;47.964;7.982;2023-06-14T10:17:06;96305.53;;;22.10;39.45
48390;BME280;34643;47.964;7.982;2023-06-14T10:22:19;96301.09;;;22.11;39.79
48390;BME280;34643;47.964;7.982;2023-06-14T10:27:23;96303.59;;;22.12;39.56
48390;BME280;34643;47.964;7.982;2023-06-14T10:32:24;96287.81;;;22.12;39.59
48390;BME280;34643;47.964;7.982;2023-06-14T10:37:24;96296.38;;;22.14;39.95
48390;BME280;34643;47.964;7.982;2023-06-14T10:42:27;96290.97;;;22.16;39.75
48390;BME280;34643;47.964;7.982;2023-06-14T10:47:31;96292.44;;;22.18;39.88
48390;BME280;34643;47.964;7.982;2023-06-14T10:52:34;96291.47;;;22.19;39.75
48390;BME280;34643;47.964;7.982;2023-06-14T10:57:36;96285.22;;;22.20;39.96
48390;BME280;34643;47.964;7.982;2023-06-14T11:02:46;96281.63;;;22.21;40.00
48390;BME280;34643;47.964;7.982;2023-06-14T11:13:29;96291.81;;;22.25;40.04
48390;BME280;34643;47.964;7.982;2023-06-14T11:18:29;96294.31;;;22.26;39.86
48390;BME280;34643;47.964;7.982;2023-06-14T11:23:30;96288.19;;;22.26;40.04
48390;BME280;34643;47.964;7.982;2023-06-14T11:28:37;96283.63;;;22.28;39.96
48390;BME280;34643;47.964;7.982;2023-06-14T11:33:38;96286.25;;;22.28;40.15
48390;BME280;34643;47.964;7.982;2023-06-14T11:38:38;96273.81;;;22.30;40.26
48390;BME280;34643;47.964;7.982;2023-06-14T11:43:39;96280.69;;;22.31;40.09
48390;BME280;34643;47.964;7.982;2023-06-14T11:48:41;96277.09;;;22.32;40.37
48390;BME280;34643;47.964;7.982;2023-06-14T11:53:42;96267.41;;;22.32;40.22
48390;BME280;34643;47.964;7.982;2023-06-14T11:58:43;96268.22;;;22.33;40.44
48390;BME280;34643;47.964;7.982;2023-06-14T12:03:47;96267.09;;;22.35;40.28
48390;BME280;34643;47.964;7.982;2023-06-14T12:08:48;96256.41;;;22.37;40.65
48390;BME280;34643;47.964;7.982;2023-06-14T12:13:50;96258.06;;;22.38;40.56
48390;BME280;34643;47.964;7.982;2023-06-14T12:18:50;96256.28;;;22.38;40.59
48390;BME280;34643;47.964;7.982;2023-06-14T12:23:53;96257.75;;;22.41;40.42
48390;BME280;34643;47.964;7.982;2023-06-14T12:28:53;96255.13;;;22.41;40.54
48390;BME280;34643;47.964;7.982;2023-06-14T12:33:54;96259.41;;;22.42;40.87
48390;BME280;34643;47.964;7.982;2023-06-14T12:38:54;96257.59;;;22.43;40.54
48390;BME280;34643;47.964;7.982;2023-06-14T12:43:54;96253.97;;;22.44;40.76
48390;BME280;34643;47.964;7.982;2023-06-14T12:48:55;96258.25;;;22.45;40.73
48390;BME280;34643;47.964;7.982;2023-06-14T12:53:55;96241.50;;;22.46;40.76
48390;BME280;34643;47.964;7.982;2023-06-14T12:58:56;96262.34;;;22.47;40.61
48390;BME280;34643;47.964;7.982;2023-06-14T13:03:56;96261.38;;;22.48;40.61
48390;BME280;34643;47.964;7.982;2023-06-14T13:08:56;96268.31;;;22.49;40.54
48390;BME280;34643;47.964;7.982;2023-06-14T13:13:57;96262.72;;;22.52;40.75
48390;BME280;34643;47.964;7.982;2023-06-14T13:18:58;96258.44;;;22.51;40.87
48390;BME280;34643;47.964;7.982;2023-06-14T13:23:58;96263.72;;;22.51;40.85
48390;BME280;34643;47.964;7.982;2023-06-14T13:28:58;96268.81;;;22.53;40.70
48390;BME280;34643;47.964;7.982;2023-06-14T13:33:58;96253.84;;;22.53;40.91
48390;BME280;34643;47.964;7.982;2023-06-14T13:38:59;96258.09;;;22.54;41.26
48390;BME280;34643;47.964;7.982;2023-06-14T13:44:00;96248.44;;;22.55;41.12
48390;BME280;34643;47.964;7.982;2023-06-14T13:49:00;96260.44;;;22.57;41.17
48390;BME280;34643;47.964;7.982;2023-06-14T13:54:02;96256.81;;;22.58;41.26
48390;BME280;34643;47.964;7.982;2023-06-14T13:59:02;96254.03;;;22.60;41.21
48390;BME280;34643;47.964;7.982;2023-06-14T14:04:03;96246.16;;;22.60;41.10
48390;BME280;34643;47.964;7.982;2023-06-14T14:09:04;96249.44;;;22.62;41.08
48390;BME280;34643;47.964;7.982;2023-06-14T14:14:05;96246.00;;;22.62;41.48
48390;BME280;34643;47.964;7.982;2023-06-14T14:19:05;96249.28;;;22.64;41.37
48390;BME280;34643;47.964;7.982;2023-06-14T14:24:06;96243.19;;;22.63;41.28
48390;BME280;34643;47.964;7.982;2023-06-14T14:29:07;96257.19;;;22.64;41.35
48390;BME280;34643;47.964;7.982;2023-06-14T14:34:07;96251.75;;;22.65;41.40
48390;BME280;34643;47.964;7.982;2023-06-14T14:39:08;96253.38;;;22.66;41.77
48390;BME280;34643;47.964;7.982;2023-06-14T14:44:08;96257.84;;;22.66;41.75
48390;BME280;34643;47.964;7.982;2023-06-14T14:49:08;96259.47;;;22.67;41.86
48390;BME280;34643;47.964;7.982;2023-06-14T14:54:09;96256.69;;;22.68;41.68
48390;BME280;34643;47.964;7.982;2023-06-14T14:59:09;96256.53;;;22.70;41.86
48390;BME280;34643;47.964;7.982;2023-06-14T15:04:10;96255.69;;;22.69;41.88
48390;BME280;34643;47.964;7.982;2023-06-14T15:09:10;96257.34;;;22.70;41.73
48390;BME280;34643;47.964;7.982;2023-06-14T15:14:10;96261.63;;;22.71;41.93
48390;BME280;34643;47.964;7.982;2023-06-14T15:19:11;96262.44;;;22.72;41.81
48390;BME280;34643;47.964;7.982;2023-06-14T15:24:11;96257.19;;;22.72;41.81
48390;BME280;34643;47.964;7.982;2023-06-14T15:29:11;96258.84;;;22.73;41.97
48390;BME280;34643;47.964;7.982;2023-06-14T15:34:11;96272.00;;;22.73;42.06
48390;BME280;34643;47.964;7.982;2023-06-14T15:39:12;96268.34;;;22.74;41.98
48390;BME280;34643;47.964;7.982;2023-06-14T15:44:12;96272.00;;;22.73;41.95
48390;BME280;34643;47.964;7.982;2023-06-14T15:49:13;96263.94;;;22.74;41.99
48390;BME280;34643;47.964;7.982;2023-06-14T15:54:13;96271.00;;;22.74;41.96
48390;BME280;34643;47.964;7.982;2023-06-14T15:59:13;96264.91;;;22.73;42.18
48390;BME280;34643;47.964;7.982;2023-06-14T16:04:14;96265.72;;;22.74;41.85
48390;BME280;34643;47.964;7.982;2023-06-14T16:09:14;96256.88;;;22.75;42.06
48390;BME280;34643;47.964;7.982;2023-06-14T16:14:14;96271.69;;;22.76;42.28
48390;BME280;34643;47.964;7.982;2023-06-14T16:19:14;96261.16;;;22.76;41.92
48390;BME280;34643;47.964;7.982;2023-06-14T16:24:15;96269.88;;;22.76;41.94
48390;BME280;34643;47.964;7.982;2023-06-14T16:29:16;96281.19;;;22.77;42.93
48390;BME280;34643;47.964;7.982;2023-06-14T16:34:16;96291.91;;;22.84;42.89
48390;BME280;34643;47.964;7.982;2023-06-14T16:39:16;96283.53;;;22.80;42.76
48390;BME280;34643;47.964;7.982;2023-06-14T16:44:16;96289.59;;;22.81;42.96
48390;BME280;34643;47.964;7.982;2023-06-14T16:49:18;96294.19;;;22.78;42.88
48390;BME280;34643;47.964;7.982;2023-06-14T16:54:18;96299.31;;;22.80;43.30
48390;BME280;34643;47.964;7.982;2023-06-14T16:59:19;96294.03;;;22.80;43.48
48390;BME280;34643;47.964;7.982;2023-06-14T17:04:19;96301.94;;;22.80;43.49
48390;BME280;34643;47.964;7.982;2023-06-14T17:09:20;96315.09;;;22.80;43.42
48390;BME280;34643;47.964;7.982;2023-06-14T17:14:20;96315.91;;;22.81;43.57
48390;BME280;34643;47.964;7.982;2023-06-14T17:19:20;96329.06;;;22.81;43.88
48390;BME280;34643;47.964;7.982;2023-06-14T17:24:21;96328.25;;;22.80;43.75
48390;BME280;34643;47.964;7.982;2023-06-14T17:29:21;96343.88;;;22.82;44.06
48390;BME280;34643;47.964;7.982;2023-06-14T17:34:24;96344.69;;;22.82;44.44
48390;BME280;34643;47.964;7.982;2023-06-14T17:39:24;96351.78;;;22.82;44.08
48390;BME280;34643;47.964;7.982;2023-06-14T17:44:24;96361.47;;;22.81;44.91
48390;BME280;34643;47.964;7.982;2023-06-14T17:49:25;96364.13;;;22.81;44.35
48390;BME280;34643;47.964;7.982;2023-06-14T17:54:26;96368.38;;;22.82;44.23
48390;BME280;34643;47.964;7.982;2023-06-14T17:59:26;96363.94;;;22.83;44.11
48390;BME280;34643;47.964;7.982;2023-06-14T18:04:27;96382.84;;;22.86;44.00
48390;BME280;34643;47.964;7.982;2023-06-14T18:09:27;96383.84;;;22.85;43.88
48390;BME280;34643;47.964;7.982;2023-06-14T18:14:27;96394.75;;;22.98;44.01
48390;BME280;34643;47.964;7.982;2023-06-14T18:19:28;96397.03;;;22.93;44.34
48390;BME280;34643;47.964;7.982;2023-06-14T18:24:28;96402.97;;;22.95;43.61
48390;BME280;34643;47.964;7.982;2023-06-14T18:29:29;96407.22;;;23.23;41.99
48390;BME280;34643;47.964;7.982;2023-06-14T18:34:29;96415.34;;;23.03;39.74
48390;BME280;34643;47.964;7.982;2023-06-14T18:39:31;96419.31;;;23.07;41.32
48390;BME280;34643;47.964;7.982;2023-06-14T18:44:32;96428.38;;;23.13;42.23
48390;BME280;34643;47.964;7.982;2023-06-14T18:49:32;96427.94;;;23.18;42.51
48390;BME280;34643;47.964;7.982;2023-06-14T18:54:32;96433.84;;;23.20;42.55
48390;BME280;34643;47.964;7.982;2023-06-14T18:59:33;96427.63;;;23.21;42.92
48390;BME280;34643;47.964;7.982;2023-06-14T19:04:33;96438.00;;;23.22;43.11
48390;BME280;34643;47.964;7.982;2023-06-14T19:09:33;96439.94;;;23.20;43.61
48390;BME280;34643;47.964;7.982;2023-06-14T19:14:34;96443.38;;;23.12;43.82
48390;BME280;34643;47.964;7.982;2023-06-14T19:19:34;96444.38;;;23.11;43.85
48390;BME280;34643;47.964;7.982;2023-06-14T19:24:35;96447.16;;;23.10;43.67
48390;BME280;34643;47.964;7.982;2023-06-14T19:29:36;96459.47;;;23.09;44.26
48390;BME280;34643;47.964;7.982;2023-06-14T19:34:36;96472.63;;;23.09;44.16
48390;BME280;34643;47.964;7.982;2023-06-14T19:39:42;96479.72;;;23.09;44.48
48390;BME280;34643;47.964;7.982;2023-06-14T19:44:42;96490.09;;;23.10;44.09
48390;BME280;34643;47.964;7.982;2023-06-14T19:49:43;96498.00;;;23.10;44.57
48390;BME280;34643;47.964;7.982;2023-06-14T19:54:44;96504.06;;;23.11;44.38
48390;BME280;34643;47.964;7.982;2023-06-14T19:59:44;96508.50;;;23.10;44.76
48390;BME280;34643;47.964;7.982;2023-06-14T20:04:46;96516.25;;;23.12;44.48
48390;BME280;34643;47.964;7.982;2023-06-14T20:09:46;96517.06;;;23.12;44.66
48390;BME280;34643;47.964;7.982;2023-06-14T20:14:46;96523.16;;;23.13;44.62
48390;BME280;34643;47.964;7.982;2023-06-14T20:19:47;96529.88;;;23.07;42.89
48390;BME280;34643;47.964;7.982;2023-06-14T20:24:48;96531.06;;;22.87;42.22
48390;BME280;34643;47.964;7.982;2023-06-14T20:29:49;96534.00;;;22.84;41.90
48390;BME280;34643;47.964;7.982;2023-06-14T20:34:49;96534.59;;;22.51;40.66
48390;BME280;34643;47.964;7.982;2023-06-14T20:39:55;96541.66;;;22.33;39.68
48390;BME280;34643;47.964;7.982;2023-06-14T20:45:05;96543.75;;;22.29;39.70
48390;BME280;34643;47.964;7.982;2023-06-14T20:50:06;96550.56;;;22.04;39.49
48390;BME280;34643;47.964;7.982;2023-06-14T20:55:08;96544.66;;;21.74;39.90
48390;BME280;34643;47.964;7.982;2023-06-14T21:00:08;96547.59;;;21.71;40.06
48390;BME280;34643;47.964;7.982;2023-06-14T21:05:11;96545.78;;;22.17;41.13
48390;BME280;34643;47.964;7.982;2023-06-14T21:10:12;96539.63;;;22.27;42.46
48390;BME280;34643;47.964;7.982;2023-06-14T21:15:12;96545.81;;;22.26;42.08
48390;BME280;34643;47.964;7.982;2023-06-14T21:20:12;96550.41;;;22.24;42.40
48390;BME280;34643;47.964;7.982;2023-06-14T21:25:13;96552.81;;;22.17;42.10
48390;BME280;34643;47.964;7.982;2023-06-14T21:30:15;96548.03;;;22.12;42.16
48390;BME280;34643;47.964;7.982;2023-06-14T21:35:16;96560.50;;;22.10;42.07
48390;BME280;34643;47.964;7.982;2023-06-14T21:40:17;96556.63;;;22.05;41.67
48390;BME280;34643;47.964;7.982;2023-06-14T21:45:18;96555.53;;;22.07;41.36
48390;BME280;34643;47.964;7.982;2023-06-14T21:50:18;96569.47;;;22.08;41.61
48390;BME280;34643;47.964;7.982;2023-06-14T21:55:18;96562.72;;;22.05;41.59
48390;BME280;34643;47.964;7.982;2023-06-14T22:00:23;96560.53;;;22.00;41.37
48390;BME280;34643;47.964;7.982;2023-06-14T22:05:24;96567.31;;;22.03;41.82
48390;BME280;34643;47.964;7.982;2023-06-14T22:10:25;96566.53;;;21.93;41.45
48390;BME280;34643;47.964;7.982;2023-06-14T22:15:26;96562.25;;;21.92;41.67
48390;BME280;34643;47.964;7.982;2023-06-14T22:20:27;96567.06;;;21.78;41.48
48390;BME280;34643;47.964;7.982;2023-06-14T22:25:29;96549.63;;;21.77;41.28
48390;BME280;34643;47.964;7.982;2023-06-14T22:30:30;96553.06;;;21.78;41.15
48390;BME280;34643;47.964;7.982;2023-06-14T22:35:32;96557.66;;;21.76;40.91
48390;BME280;34643;47.964;7.982;2023-06-14T22:40:33;96557.78;;;21.74;40.95
48390;BME280;34643;47.964;7.982;2023-06-14T22:45:33;96559.34;;;21.67;40.28
48390;BME280;34643;47.964;7.982;2023-06-14T22:50:34;96566.41;;;21.67;40.09
48390;BME280;34643;47.964;7.982;2023-06-14T22:55:35;96564.53;;;21.59;39.67
48390;BME280;34643;47.964;7.982;2023-06-14T23:00:35;96559.28;;;21.59;39.42
48390;BME280;34643;47.964;7.982;2023-06-14T23:05:35;96557.88;;;21.55;39.53
48390;BME280;34643;47.964;7.982;2023-06-14T23:10:38;96560.16;;;21.50;39.41
48390;BME280;34643;47.964;7.982;2023-06-14T23:15:40;96552.66;;;21.45;39.31
48390;BME280;34643;47.964;7.982;2023-06-14T23:20:41;96550.19;;;21.43;39.52
48390;BME280;34643;47.964;7.982;2023-06-14T23:25:42;96550.47;;;21.40;39.60
48390;BME280;34643;47.964;7.982;2023-06-14T23:30:42;96551.59;;;21.38;39.64
48390;BME280;34643;47.964;7.982;2023-06-14T23:35:45;96544.00;;;21.35;39.61
48390;BME280;34643;47.964;7.982;2023-06-14T23:40:45;96542.91;;;21.37;39.94
48390;BME280;34643;47.964;7.982;2023-06-14T23:45:46;96542.72;;;21.39;39.76
48390;BME280;34643;47.964;7.982;2023-06-14T23:50:47;96546.19;;;21.39;39.75
48390;BME280;34643;47.964;7.982;2023-06-14T23:55:47;96543.03;;;21.36;40.31
